• Join FlightAware (Why Join?)
  • Login
  • US Flag 
02:23AM EDT


 

Airport Tracker/Info


-or-


 

Live Flight TrackerFlight Track Log ✈ N465TP ✈ 27-Aug-2013 ✈ KCPR - KCOS

Flight Track Log - Related Links

Times and Time Zones

All times are in EDT time to prevent confusion due to time zone crossing. See the N465TP flight status page for this flight to view local times or setup timezone preferences in your user account.

Time Position Orientation Groundspeed Altitude Reporting Facility
EDT Latitude Longitude Course Direction KTS MPH feet Rate Location/Type
11:05AM 42.7683 -106.5519 195° South 175 201 10,200  Level Denver Center
11:06AM 42.5640 -106.3073 161° South  Level Estimated
11:06AM 42.7203 -106.5231 156° South 172 198 11,600  Level Denver Center
11:07AM 42.5067 -106.2813 162° South  Level Estimated
11:07AM 42.6797 -106.5011 158° South 169 194 12,900  Level Denver Center
11:08AM 42.4493 -106.2554 162° South  Level Estimated
11:08AM 42.6292 -106.4744 159° South 175 201 14,300  Level Denver Center
11:09AM 42.3919 -106.2294 162° South  Level Estimated
11:09AM 42.5878 -106.4519 158° South 170 196 15,300  Level Denver Center
11:10AM 42.5436 -106.4283 159° South 175 201 16,400 1,200 Climbing Denver Center
11:11AM 42.4931 -106.4028 160° South 175 201 17,800 960 Climbing Denver Center
11:12AM 42.4483 -106.3797 159° South 178 205 18,500 1,020 Climbing Denver Center
11:13AM 42.3939 -106.3500 158° South 188 216 20,000 1,260 Climbing Denver Center
11:14AM 42.3469 -106.3269 160° South 188 216 21,200 1,020 Climbing Denver Center
11:15AM 42.2928 -106.2983 159° South 187 215 22,200 900 Climbing Denver Center
11:16AM 42.2467 -106.2725 157° South 187 215 23,100 960 Climbing Denver Center
11:17AM 42.1906 -106.2483 162° South 190 219 24,200 780 Climbing Denver Center
11:18AM 42.1397 -106.2239 160° South 198 228 24,800 360 Climbing Denver Center
11:20AM 42.0767 -106.1967 162° South 212 244 25,000 60 Climbing Denver Center
11:21AM 42.0178 -106.1694 161° South 229 264 25,000  Level Denver Center
11:22AM 41.9494 -106.1394 162° South 232 267 25,000  Level Denver Center
11:23AM 41.8881 -106.1119 162° South 238 274 25,000  Level Denver Center
11:24AM 41.8172 -106.0794 161° South 242 278 25,000  Level Denver Center
11:25AM 41.7561 -106.0517 161° South 243 280 25,000  Level Denver Center
11:26AM 41.7042 -106.0289 162° South 245 282 25,000  Level Denver Center
11:27AM 41.6233 -105.9925 161° South 242 278 25,000  Level Denver Center
11:28AM 41.5536 -105.9622 162° South 237 273 25,000  Level Denver Center
11:29AM 41.4944 -105.9372 162° South 235 270 25,000  Level Denver Center
11:30AM 41.4256 -105.9067 162° South 234 269 25,000  Level Denver Center
11:31AM 41.3664 -105.8794 161° South 236 272 25,000  Level Denver Center
11:32AM 41.2989 -105.8511 162° South 229 264 25,000  Level Denver Center
11:33AM 41.2417 -105.8247 161° South 228 262 25,000  Level Denver Center
11:34AM 41.1842 -105.7992 162° South 228 262 25,000  Level Denver Center
11:35AM 41.1144 -105.7681 161° South 234 269 25,000  Level Denver Center
11:36AM 41.0569 -105.7428 162° South 230 265 25,000  Level Denver Center
11:37AM 40.9942 -105.7158 162° South 232 267 25,000  Level Denver Center
11:38AM 40.9328 -105.6878 161° South 234 269 25,000  Level Denver Center
11:39AM 40.8592 -105.6586 163° South 231 266 25,000  Level Denver Center
11:40AM 40.7978 -105.6297 160° South 234 269 25,000  Level Denver Center
11:41AM 40.7361 -105.6025 162° South 236 272 25,000  Level Denver Center
11:42AM 40.6753 -105.5758 162° South 231 266 25,000  Level Denver Center
11:43AM 40.6136 -105.5497 162° South 232 267 25,000  Level Denver Center
11:44AM 40.5394 -105.5178 162° South 234 269 25,000 -240 Level Denver Center
11:45AM 40.4778 -105.4911 162° South 234 269 24,600 -720 Descending Denver Center
11:46AM 40.4117 -105.4617 161° South 248 285 23,600 -780 Descending Denver Center
11:47AM 40.3447 -105.4283 159° South 238 274 23,000 -300 Descending Denver Center
11:48AM 40.2969 -105.3656 135° Southeast 245 282 23,000  Level Denver Center
11:50AM 40.2447 -105.3000 136° Southeast 243 280 23,000  Level Denver Center
11:51AM 40.1964 -105.2406 137° Southeast 242 278 23,000  Level Denver Center
11:52AM 40.1478 -105.1806 137° Southeast 241 277 23,000  Level Denver Center
11:53AM 40.0947 -105.1200 139° Southeast 235 270 23,000  Level Denver Center
11:54AM 40.0317 -105.0967 164° South 235 270 23,000  Level Denver Center
11:55AM 39.9647 -105.0678 162° South 235 270 23,000  Level Denver Center
11:56AM 39.8881 -105.0347 162° South 237 273 23,000  Level Denver Center
11:57AM 39.8208 -105.0067 162° South 237 273 23,000  Level Denver Center
11:58AM 39.7572 -104.9792 162° South 242 278 23,000 -120 Level Denver Center
11:59AM 39.6906 -104.9519 163° South 234 269 22,800 -420 Descending Denver Center
12:00PM 39.6269 -104.9236 161° South 241 277 22,100 -720 Descending Denver Center
12:01PM 39.5514 -104.8842 158° South 239 275 21,300 -780 Descending Denver Center
12:02PM 39.4914 -104.8331 147° Southeast 238 274 20,500 -780 Descending Denver Center
12:03PM 39.4325 -104.7950 153° Southeast 246 283 19,800 -720 Descending Denver Center
12:04PM 39.3631 -104.7925 178° South 231 266 19,100 -780 Descending Denver Center
12:05PM 39.2975 -104.7936 181° South 236 272 18,300 -720 Descending Denver Center
12:06PM 39.2331 -104.7619 159° South 229 264 17,700 -780 Descending Denver Center
12:08PM 39.1719 -104.7339 160° South 234 269 16,700 -1,080 Descending Denver Center
12:09PM 39.1125 -104.7078 161° South 225 259 15,500 -1,200 Descending Denver Center
12:10PM 39.0519 -104.6825 162° South 228 262 14,100 -1,380 Descending Denver Center
12:11PM 38.9794 -104.6500 161° South 229 264 12,400 -1,440 Descending Denver Center
12:12PM 38.9083 -104.6436 176° South 216 249 11,200 -1,020 Descending Denver Center
12:13PM 38.8503 -104.6469 183° South 200 230 10,400 -1,020 Descending Denver Center
12:14PM 38.7944 -104.6525 184° South 205 236 9,100 -1,500 Descending Denver Center
12:15PM 38.7608 -104.6989 227° Southwest 211 243 7,300 -1,260 Descending Denver Center
12:16PM 38.7919 -104.7269 325° Northwest 186 214 6,600 -720 Descending Denver Center
12:18PM 38.8000 -104.7000 38° Northeast  Level FlightAware Approximate
12:25PM 38.8058 -104.7008 38° Northeast  Level Estimated